createdAt,value
2023-02-06T00:00:37.607Z,21.40
2023-02-06T00:03:06.116Z,24.50
2023-02-06T00:05:36.315Z,23.30
2023-02-06T00:08:07.090Z,25.00
2023-02-06T00:10:35.574Z,22.60
2023-02-06T00:13:03.914Z,24.10
2023-02-06T00:15:32.173Z,23.87
2023-02-06T00:18:00.429Z,28.73
2023-02-06T00:20:29.079Z,25.30
2023-02-06T00:22:58.973Z,21.33
2023-02-06T00:25:27.404Z,27.97
2023-02-06T00:27:55.719Z,21.90
2023-02-06T00:30:25.545Z,22.03
2023-02-06T00:32:54.090Z,23.70
2023-02-06T00:35:22.804Z,21.50
2023-02-06T00:37:52.020Z,21.27
2023-02-06T00:40:22.755Z,23.33
2023-02-06T00:42:51.055Z,22.47
2023-02-06T00:45:19.732Z,21.20
2023-02-06T00:47:47.993Z,20.70
2023-02-06T00:50:16.969Z,19.73
2023-02-06T00:52:45.807Z,23.07
2023-02-06T00:55:14.306Z,21.13
2023-02-06T00:57:44.502Z,21.10
2023-02-06T01:00:14.628Z,22.13
2023-02-06T01:02:42.900Z,17.60
2023-02-06T01:05:14.084Z,23.10
2023-02-06T01:07:45.732Z,21.80
2023-02-06T01:10:15.050Z,25.00
2023-02-06T01:12:44.896Z,24.73
2023-02-06T01:15:15.560Z,19.53
2023-02-06T01:17:43.972Z,20.80
2023-02-06T01:20:15.282Z,21.60
2023-02-06T01:22:43.833Z,22.13
2023-02-06T01:25:13.557Z,27.37
2023-02-06T01:27:42.023Z,23.87
2023-02-06T01:30:13.689Z,24.13
2023-02-06T01:32:43.357Z,21.53
2023-02-06T01:35:13.271Z,22.83
2023-02-06T01:37:42.441Z,22.10
2023-02-06T01:40:15.824Z,22.50
2023-02-06T01:42:44.861Z,23.73
2023-02-06T01:45:42.721Z,27.07
2023-02-06T01:48:16.518Z,21.20
2023-02-06T01:50:49.586Z,19.90
2023-02-06T01:53:19.522Z,22.00
2023-02-06T01:55:51.108Z,20.03
2023-02-06T01:58:25.986Z,21.20
2023-02-06T02:00:56.947Z,23.53
2023-02-06T02:03:25.807Z,23.73
2023-02-06T02:05:58.964Z,26.20
2023-02-06T02:08:35.335Z,27.53
2023-02-06T02:11:43.164Z,35.53
2023-02-06T02:14:14.949Z,28.17
2023-02-06T02:17:01.964Z,30.93
2023-02-06T02:20:24.892Z,33.53
2023-02-06T02:23:22.770Z,31.50
2023-02-06T02:26:19.406Z,23.60
2023-02-06T02:29:54.926Z,24.53
2023-02-06T02:33:23.324Z,28.53
2023-02-06T02:35:56.816Z,32.60
2023-02-06T02:38:39.673Z,25.77
2023-02-06T02:41:21.020Z,26.27
2023-02-06T02:43:56.433Z,28.70
2023-02-06T02:46:31.124Z,29.57
2023-02-06T02:49:10.727Z,32.23
2023-02-06T02:51:42.045Z,26.87
2023-02-06T02:54:10.986Z,26.27
2023-02-06T02:56:39.706Z,29.00
2023-02-06T02:59:13.315Z,23.13
2023-02-06T03:01:49.956Z,24.80
2023-02-06T03:04:24.272Z,28.70
2023-02-06T03:07:17.411Z,29.17
2023-02-06T03:09:58.075Z,23.43
2023-02-06T03:12:40.254Z,28.33
2023-02-06T03:15:21.739Z,29.93
2023-02-06T03:18:00.428Z,26.90
2023-02-06T03:20:31.560Z,30.53
2023-02-06T03:23:04.457Z,29.63
2023-02-06T03:25:43.108Z,27.60
2023-02-06T03:28:18.234Z,28.03
2023-02-06T03:31:19.524Z,24.10
2023-02-06T03:33:53.750Z,24.40
2023-02-06T03:36:22.842Z,25.70
2023-02-06T03:38:57.618Z,27.37
2023-02-06T03:41:34.120Z,25.80
2023-02-06T03:44:26.300Z,26.53
2023-02-06T03:47:03.529Z,32.70
2023-02-06T03:49:34.501Z,28.23
2023-02-06T03:55:08.752Z,26.13
2023-02-06T03:57:41.575Z,26.00
2023-02-06T04:00:12.166Z,22.67
2023-02-06T04:02:47.831Z,25.10
2023-02-06T04:05:18.072Z,25.03
2023-02-06T04:07:49.426Z,23.50
2023-02-06T04:10:26.484Z,22.70
2023-02-06T04:13:03.454Z,25.90
2023-02-06T04:15:31.953Z,21.40
2023-02-06T04:18:31.361Z,24.13
2023-02-06T04:21:13.807Z,22.40
2023-02-06T04:24:09.066Z,25.30
2023-02-06T04:26:38.697Z,25.93
2023-02-06T04:29:07.178Z,25.67
2023-02-06T04:31:50.773Z,25.67
2023-02-06T04:34:28.165Z,26.10
2023-02-06T04:36:56.878Z,20.70
2023-02-06T04:39:28.845Z,24.77
2023-02-06T04:41:58.941Z,22.40
2023-02-06T04:44:27.654Z,25.73
2023-02-06T04:46:56.191Z,23.63
2023-02-06T04:49:24.498Z,25.43
2023-02-06T04:51:56.565Z,25.13
2023-02-06T04:54:32.441Z,23.80
2023-02-06T04:57:02.903Z,23.77
2023-02-06T04:59:31.508Z,22.23
2023-02-06T05:01:59.965Z,26.67
2023-02-06T05:05:09.546Z,24.63
2023-02-06T05:07:59.466Z,28.97
2023-02-06T05:10:45.572Z,27.17
2023-02-06T05:13:35.501Z,24.10
2023-02-06T05:16:24.280Z,24.40
2023-02-06T05:19:03.254Z,26.30
2023-02-06T05:21:41.280Z,22.77
2023-02-06T05:24:22.896Z,24.80
2023-02-06T05:26:58.485Z,27.70
2023-02-06T05:29:37.582Z,23.30
2023-02-06T05:32:09.092Z,25.77
2023-02-06T05:34:37.619Z,35.50
2023-02-06T05:37:15.012Z,35.93
2023-02-06T05:39:49.255Z,24.00
2023-02-06T05:42:24.754Z,26.60
2023-02-06T05:45:00.490Z,23.57
2023-02-06T05:47:30.112Z,23.23
2023-02-06T05:49:58.371Z,26.13
2023-02-06T05:52:26.663Z,23.13
2023-02-06T05:54:55.011Z,27.70
2023-02-06T05:57:32.627Z,23.27
2023-02-06T06:00:15.783Z,27.63
2023-02-06T06:02:44.081Z,30.40
2023-02-06T06:05:12.340Z,28.30
2023-02-06T06:07:40.787Z,25.50
2023-02-06T06:10:10.227Z,26.57
2023-02-06T06:12:38.811Z,23.13
2023-02-06T06:15:10.183Z,26.17
2023-02-06T06:17:38.519Z,31.00
2023-02-06T06:20:08.859Z,26.40
2023-02-06T06:22:39.461Z,28.10
2023-02-06T06:25:20.678Z,26.13
2023-02-06T06:27:49.661Z,21.67
2023-02-06T06:58:31.735Z,16.30
2023-02-06T07:01:01.107Z,13.10
2023-02-06T07:06:38.856Z,10.30
2023-02-06T07:09:07.410Z,10.00
2023-02-06T07:11:36.384Z,11.57
2023-02-06T07:14:21.469Z,12.60
2023-02-06T07:16:51.159Z,8.67
2023-02-06T07:22:37.664Z,10.70
2023-02-06T07:25:07.803Z,15.00
2023-02-06T07:30:35.287Z,9.70
2023-02-06T07:33:27.076Z,12.47
2023-02-06T07:35:55.559Z,13.13
2023-02-06T07:38:26.446Z,10.70
2023-02-06T07:40:54.813Z,10.47
2023-02-06T07:43:23.091Z,12.03
2023-02-06T07:46:10.307Z,10.43
2023-02-06T07:48:39.807Z,9.03
2023-02-06T07:54:24.634Z,9.70
2023-02-06T07:57:06.956Z,10.67
2023-02-06T07:59:53.119Z,12.60
2023-02-06T08:02:44.312Z,11.20
2023-02-06T08:16:38.998Z,13.80
2023-02-06T08:19:41.483Z,11.80
2023-02-06T08:23:02.508Z,13.40
2023-02-06T08:26:02.803Z,10.13
2023-02-06T08:32:19.425Z,12.03
2023-02-06T08:36:38.000Z,10.83
2023-02-06T08:40:20.273Z,13.93
2023-02-06T08:43:03.431Z,13.07
2023-02-06T08:46:04.075Z,9.73
2023-02-06T08:52:29.522Z,8.97
2023-02-06T09:05:26.738Z,12.63
2023-02-06T09:08:16.854Z,8.20
2023-02-06T09:10:46.366Z,12.47
2023-02-06T09:13:15.433Z,7.50
2023-02-06T09:15:44.062Z,10.17
2023-02-06T09:18:12.341Z,8.10
2023-02-06T09:20:40.555Z,9.50
2023-02-06T09:23:08.814Z,8.60
2023-02-06T09:25:40.113Z,9.20
2023-02-06T09:28:08.503Z,7.33
2023-02-06T09:30:36.847Z,5.70
2023-02-06T10:15:27.093Z,9.40
2023-02-06T10:56:34.979Z,5.63
2023-02-06T10:59:12.539Z,8.77
2023-02-06T11:01:43.056Z,11.43
2023-02-06T11:04:17.041Z,5.60
2023-02-06T12:21:55.929Z,3.83
2023-02-06T12:24:32.259Z,3.80
2023-02-06T13:25:52.858Z,3.40
2023-02-06T13:28:42.813Z,2.83
2023-02-06T13:31:25.758Z,3.60
2023-02-06T13:33:58.521Z,3.23
2023-02-06T13:36:43.613Z,3.63
2023-02-06T13:39:32.461Z,3.13
2023-02-06T13:42:34.431Z,2.50
2023-02-06T13:45:06.991Z,3.33
2023-02-06T13:48:10.101Z,3.90
2023-02-06T13:51:00.792Z,3.60
2023-02-06T13:54:10.427Z,2.37
2023-02-06T13:56:58.616Z,2.33
2023-02-06T14:15:12.765Z,3.87
2023-02-06T14:18:14.796Z,2.90
2023-02-06T14:20:51.142Z,6.50
2023-02-06T14:23:36.884Z,2.67
2023-02-06T14:26:22.331Z,3.03
2023-02-06T15:35:41.926Z,2.03
2023-02-06T16:34:38.397Z,3.60
2023-02-06T16:37:14.503Z,5.00
2023-02-06T16:39:44.970Z,8.33
2023-02-06T16:53:11.896Z,9.97
2023-02-06T16:55:58.683Z,8.73
2023-02-06T17:03:10.121Z,6.10
2023-02-06T17:05:40.443Z,5.70
